KHLR/HLR METAR and TAF weather

Enter ICAO airport designator
Station Type Date Time Source
KHLR METAR 2021/01/17 18:58 UTC NOAA

KHLR 171858Z AUTO 04004KT 10SM CLR 16/M03 A3012 RMK AO2 LTG DSNT S SLP198 T01591028


Station Type Date Time Source
KHLR Decoded METAR 2021/01/17 18:58 UTC NOAA

Fort Hood, Hood AAF Ft Hood, TX, United States (KHLR) 31-08N 097-42W
Jan 17, 2021 - 01:58 PM EST / 2021.01.17 1858 UTC
Wind: from the NE (040 degrees) at 5 MPH (4 KT):0
Visibility: 10 mile(s):0
Sky conditions: clear
Weather: Lightning observed
Temperature: 60.6 F (15.9 C)
Dew Point: 27.0 F (-2.8 C)
Relative Humidity: 27%
Pressure (altimeter): 30.12 in. Hg (1019 hPa)
ob: KHLR 171858Z AUTO 04004KT 10SM CLR 16/M03 A3012 RMK AO2 LTG DSNT S SLP198 T01591028
cycle: 19

Station Type Date Time Source
KHLR TAF UTC NOAA

Error!

Example: see airport list